Columbus, Ohio
Traffic Map
Current Weather Conditions
Columbus, Ohio
Overcast
Overcast

Feels Like: -3°
Wind Chill: -3° Ceiling: 5000
Heat Index: Visibility: 9mi
Dew Point: -1° Wind: 8mph
Humidity: 89% Direction: 140° (SE)
Pressure: 29.91in Gusts: 0mph
Raw Report DataKCMH 011751Z 14007KT 9SM FEW008 OVC050 01/M01 A2991 RMK AO2 SLP135 4/001 60010 T00111006 10011 20000 56051
Traffic Incident Summary
Active as of:
Severity:
Category:
InformationThere was an issue retrieving the traffic information for this location. Please try a different location or try again shortly.
Advertisements
Track Severe Weather on mobile